createdAt,value
2019-03-08T00:01:08.513Z,0.97
2019-03-08T00:03:36.555Z,0.90
2019-03-08T00:06:04.618Z,0.93
2019-03-08T00:08:32.674Z,0.80
2019-03-08T00:11:00.994Z,1.20
2019-03-08T00:13:29.057Z,1.03
2019-03-08T00:15:57.102Z,1.20
2019-03-08T00:18:25.159Z,0.90
2019-03-08T00:20:53.223Z,0.83
2019-03-08T00:23:21.261Z,1.20
2019-03-08T00:25:49.290Z,1.30
2019-03-08T00:28:17.346Z,1.20
2019-03-08T00:30:45.390Z,1.00
2019-03-08T00:33:13.434Z,1.20
2019-03-08T00:35:41.497Z,1.00
2019-03-08T00:38:09.535Z,1.00
2019-03-08T00:40:37.630Z,1.33
2019-03-08T00:43:05.675Z,1.63
2019-03-08T00:45:33.734Z,1.77
2019-03-08T00:48:01.775Z,1.00
2019-03-08T00:50:29.826Z,0.93
2019-03-08T00:52:57.881Z,0.97
2019-03-08T00:55:25.952Z,1.00
2019-03-08T00:57:54.182Z,1.10
2019-03-08T01:00:22.391Z,1.00
2019-03-08T01:02:50.431Z,0.83
2019-03-08T01:05:18.766Z,0.93
2019-03-08T01:07:46.882Z,0.73
2019-03-08T01:10:19.001Z,0.80
2019-03-08T01:12:47.290Z,0.93
2019-03-08T01:15:16.411Z,1.17
2019-03-08T01:17:44.498Z,0.57
2019-03-08T01:20:13.710Z,1.10
2019-03-08T01:22:41.754Z,1.30
2019-03-08T01:25:09.970Z,0.90
2019-03-08T01:27:38.190Z,1.20
2019-03-08T01:30:07.950Z,1.00
2019-03-08T01:32:36.026Z,1.27
2019-03-08T01:35:04.240Z,1.50
2019-03-08T01:37:32.294Z,1.60
2019-03-08T01:40:00.356Z,1.40
2019-03-08T01:42:29.999Z,1.67
2019-03-08T01:44:58.039Z,1.33
2019-03-08T01:47:26.132Z,1.43
2019-03-08T01:49:54.175Z,1.20
2019-03-08T01:52:22.214Z,1.50
2019-03-08T01:54:50.269Z,1.20
2019-03-08T01:57:18.518Z,1.10
2019-03-08T01:59:46.622Z,1.17
2019-03-08T02:02:14.674Z,1.13
2019-03-08T02:04:42.711Z,1.03
2019-03-08T02:07:10.832Z,0.90
2019-03-08T02:09:38.906Z,1.00
2019-03-08T02:12:07.127Z,1.10
2019-03-08T02:14:35.157Z,0.90
2019-03-08T02:17:03.241Z,1.00
2019-03-08T02:19:31.287Z,1.07
2019-03-08T02:21:59.351Z,1.10
2019-03-08T02:24:27.392Z,0.80
2019-03-08T02:26:55.437Z,0.83
2019-03-08T02:29:23.501Z,0.83
2019-03-08T02:31:51.691Z,0.70
2019-03-08T02:34:19.758Z,1.00
2019-03-08T02:36:47.811Z,0.63
2019-03-08T02:39:15.986Z,0.60
2019-03-08T02:41:44.042Z,0.60
2019-03-08T02:44:15.166Z,0.90
2019-03-08T02:46:43.226Z,0.33
2019-03-08T02:49:11.268Z,0.47
2019-03-08T02:51:39.935Z,0.73
2019-03-08T02:54:07.951Z,0.80
2019-03-08T02:56:35.985Z,0.60
2019-03-08T02:59:04.046Z,0.97
2019-03-08T03:01:32.192Z,0.60
2019-03-08T03:04:00.236Z,1.00
2019-03-08T03:06:28.290Z,0.83
2019-03-08T03:08:56.318Z,1.00
2019-03-08T03:11:24.437Z,0.83
2019-03-08T03:13:52.518Z,0.70
2019-03-08T03:16:20.577Z,0.60
2019-03-08T03:18:48.653Z,0.70
2019-03-08T03:21:16.686Z,0.63
2019-03-08T03:23:44.746Z,0.53
2019-03-08T03:26:12.781Z,0.70
2019-03-08T03:28:41.095Z,0.60
2019-03-08T03:31:09.145Z,0.60
2019-03-08T03:33:37.190Z,0.60
2019-03-08T03:36:05.239Z,0.80
2019-03-08T03:38:33.325Z,0.70
2019-03-08T03:41:01.508Z,0.73
2019-03-08T03:43:29.831Z,1.00
2019-03-08T03:45:57.870Z,0.90
2019-03-08T03:48:25.950Z,0.60
2019-03-08T03:50:54.027Z,0.73
2019-03-08T03:53:22.126Z,0.93
2019-03-08T03:55:50.174Z,0.80
2019-03-08T03:58:18.227Z,0.67
2019-03-08T04:00:46.286Z,1.03
2019-03-08T04:03:14.939Z,0.80
2019-03-08T04:05:42.998Z,0.53
2019-03-08T04:08:11.056Z,0.60
2019-03-08T04:10:39.097Z,0.93
2019-03-08T04:13:07.138Z,0.90
2019-03-08T04:15:35.170Z,0.60
2019-03-08T04:18:03.256Z,0.90
2019-03-08T04:20:31.281Z,0.90
2019-03-08T04:22:59.337Z,0.50
2019-03-08T04:25:27.390Z,1.20
2019-03-08T04:27:55.517Z,0.80
2019-03-08T04:30:23.655Z,0.80
2019-03-08T04:32:51.674Z,0.90
2019-03-08T04:35:19.852Z,0.77
2019-03-08T04:37:47.885Z,0.97
2019-03-08T04:40:15.954Z,0.93
2019-03-08T04:42:43.989Z,0.53
2019-03-08T04:45:12.885Z,0.80
2019-03-08T04:47:40.946Z,0.83
2019-03-08T04:50:10.522Z,0.80
2019-03-08T04:52:38.583Z,0.90
2019-03-08T04:55:08.316Z,0.93
2019-03-08T04:57:36.368Z,0.80
2019-03-08T05:00:06.259Z,1.03
2019-03-08T05:02:34.382Z,0.93
2019-03-08T05:05:02.454Z,1.10
2019-03-08T05:07:30.492Z,0.73
2019-03-08T05:09:58.536Z,0.83
2019-03-08T05:12:26.638Z,0.60
2019-03-08T05:14:54.914Z,1.20
2019-03-08T05:17:22.962Z,0.73
2019-03-08T05:19:51.135Z,1.00
2019-03-08T05:22:19.199Z,0.83
2019-03-08T05:24:47.238Z,0.87
2019-03-08T05:27:15.282Z,1.07
2019-03-08T05:29:43.349Z,0.70
2019-03-08T05:32:11.391Z,1.23
2019-03-08T05:34:39.484Z,1.20
2019-03-08T05:37:07.550Z,1.33
2019-03-08T05:39:35.612Z,1.00
2019-03-08T05:42:03.655Z,1.07
2019-03-08T05:44:31.706Z,1.43
2019-03-08T05:46:59.928Z,1.07
2019-03-08T05:49:27.984Z,1.40
2019-03-08T05:51:56.018Z,0.90
2019-03-08T05:54:24.058Z,0.87
2019-03-08T05:56:52.150Z,1.00
2019-03-08T05:59:20.252Z,0.87
2019-03-08T06:01:48.283Z,1.00
2019-03-08T06:04:16.341Z,0.80
2019-03-08T06:06:44.394Z,0.67
2019-03-08T06:09:12.448Z,1.10
2019-03-08T06:11:40.510Z,1.27
2019-03-08T06:14:08.550Z,1.13
2019-03-08T06:16:36.607Z,1.20
2019-03-08T06:19:04.927Z,1.40
2019-03-08T06:21:34.092Z,1.50
2019-03-08T06:24:03.267Z,0.93
2019-03-08T06:26:31.305Z,0.90
2019-03-08T06:28:59.358Z,1.20
2019-03-08T06:31:27.410Z,1.40
2019-03-08T06:33:55.458Z,1.13
2019-03-08T06:36:23.526Z,1.30
2019-03-08T06:38:51.569Z,1.20
2019-03-08T06:41:19.695Z,1.23
2019-03-08T06:43:47.754Z,1.07
2019-03-08T06:46:15.793Z,1.40
2019-03-08T06:48:43.838Z,1.10
2019-03-08T06:51:13.507Z,1.00
2019-03-08T06:53:41.655Z,10.27
2019-03-08T06:56:09.699Z,1.20
2019-03-08T06:58:45.531Z,1.30
2019-03-08T07:01:14.549Z,1.00
2019-03-08T07:03:42.583Z,1.00
2019-03-08T07:06:10.654Z,1.40
2019-03-08T07:08:38.694Z,1.57
2019-03-08T07:11:06.753Z,1.00
2019-03-08T07:13:34.866Z,1.30
2019-03-08T07:16:03.006Z,0.83
2019-03-08T07:18:32.135Z,1.57
2019-03-08T07:21:02.149Z,1.57
2019-03-08T07:23:46.991Z,1.40
2019-03-08T07:26:22.494Z,2.10
2019-03-08T07:29:03.933Z,1.43
2019-03-08T07:31:36.632Z,1.20
2019-03-08T07:34:21.388Z,1.37
2019-03-08T07:36:51.067Z,1.33
2019-03-08T07:39:37.110Z,2.90
2019-03-08T07:42:12.651Z,1.47
2019-03-08T07:44:42.358Z,2.20
2019-03-08T07:47:20.854Z,1.37
2019-03-08T07:49:53.244Z,1.00
2019-03-08T07:52:22.926Z,1.70
2019-03-08T07:57:40.698Z,1.50
2019-03-08T08:00:20.813Z,1.40
2019-03-08T08:03:05.654Z,1.27
2019-03-08T08:05:57.691Z,1.77
2019-03-08T08:08:27.398Z,1.27
2019-03-08T08:11:02.827Z,1.63
2019-03-08T08:13:35.534Z,1.37
2019-03-08T08:16:11.278Z,1.40
2019-03-08T08:18:49.915Z,1.63
2019-03-08T08:21:19.653Z,1.77
2019-03-08T08:23:55.799Z,1.70
2019-03-08T08:26:28.505Z,2.13
2019-03-08T08:29:14.569Z,1.20
2019-03-08T08:31:50.341Z,1.63
2019-03-08T08:34:29.022Z,2.00
2019-03-08T08:37:04.955Z,1.60
2019-03-08T08:39:50.818Z,1.87
2019-03-08T08:42:20.527Z,1.60
2019-03-08T08:45:02.151Z,1.73
2019-03-08T08:47:53.816Z,1.50
2019-03-08T08:50:40.062Z,2.10
2019-03-08T08:53:15.446Z,1.53
2019-03-08T08:55:57.482Z,1.70
2019-03-08T08:58:45.547Z,1.97
2019-03-08T09:01:15.250Z,1.77
2019-03-08T09:03:47.850Z,3.27
2019-03-08T09:06:17.570Z,2.10
2019-03-08T09:08:56.126Z,2.97
2019-03-08T09:11:46.178Z,2.30
2019-03-08T09:14:15.358Z,2.00
2019-03-08T09:16:45.047Z,1.97
2019-03-08T09:19:23.785Z,2.30
2019-03-08T09:21:53.467Z,2.10
2019-03-08T09:24:29.426Z,1.73
2019-03-08T09:27:01.870Z,2.10
2019-03-08T09:29:47.685Z,1.37
2019-03-08T09:32:20.048Z,1.30
2019-03-08T09:34:52.638Z,1.40
2019-03-08T09:37:31.035Z,1.60
2019-03-08T09:40:03.353Z,1.40
2019-03-08T09:42:41.762Z,0.83
2019-03-08T09:45:11.614Z,1.30
2019-03-08T09:47:47.199Z,1.63
2019-03-08T09:50:19.926Z,1.10
2019-03-08T09:52:49.618Z,1.27
2019-03-08T09:55:22.126Z,1.30
2019-03-08T09:57:52.214Z,1.27
2019-03-08T10:00:34.120Z,1.23
2019-03-08T10:03:12.985Z,1.20
2019-03-08T10:05:59.485Z,1.10
2019-03-08T10:08:41.318Z,0.70
2019-03-08T10:11:28.965Z,0.47
2019-03-08T10:14:04.541Z,0.70
2019-03-08T10:16:50.250Z,0.50
2019-03-08T10:19:19.933Z,0.63
2019-03-08T10:22:06.140Z,0.50
2019-03-08T10:24:50.598Z,0.43
2019-03-08T10:27:37.563Z,0.30
2019-03-08T10:30:00.410Z,0.43
2019-03-08T10:32:46.386Z,0.50
2019-03-08T10:35:23.562Z,0.40
2019-03-08T10:37:50.477Z,0.70
2019-03-08T10:40:23.126Z,0.40
2019-03-08T10:42:58.968Z,0.40
2019-03-08T10:45:46.544Z,0.50
2019-03-08T10:48:21.927Z,0.50
2019-03-08T10:50:57.550Z,0.30
2019-03-08T10:53:43.509Z,0.50
2019-03-08T10:56:13.191Z,0.47
2019-03-08T10:58:45.542Z,0.40
2019-03-08T11:01:17.982Z,0.33
2019-03-08T11:03:47.937Z,0.33
2019-03-08T11:06:17.626Z,0.40
2019-03-08T11:08:47.315Z,0.30
2019-03-08T11:11:17.009Z,0.40
2019-03-08T11:13:49.342Z,0.77
2019-03-08T11:16:33.801Z,0.90
2019-03-08T11:19:19.526Z,0.50
2019-03-08T11:21:52.186Z,0.73
2019-03-08T11:24:33.966Z,0.90
2019-03-08T11:27:19.718Z,0.90
2019-03-08T11:29:49.410Z,0.87
2019-03-08T11:32:23.010Z,1.27
2019-03-08T11:34:53.206Z,0.93
2019-03-08T11:37:27.759Z,1.03
2019-03-08T11:40:00.230Z,0.83
2019-03-08T11:42:32.639Z,1.00
2019-03-08T11:45:11.106Z,0.80
2019-03-08T11:47:40.810Z,0.90
2019-03-08T11:50:13.470Z,1.07
2019-03-08T11:52:43.146Z,0.70
2019-03-08T11:55:21.865Z,0.80
2019-03-08T11:57:54.358Z,0.70
2019-03-08T12:00:26.730Z,0.77
2019-03-08T12:02:56.418Z,0.73
2019-03-08T12:05:29.312Z,0.80
2019-03-08T12:08:01.899Z,0.73
2019-03-08T12:10:34.594Z,0.73
2019-03-08T12:13:04.281Z,0.80
2019-03-08T12:15:49.157Z,0.90
2019-03-08T12:18:24.749Z,0.80
2019-03-08T12:20:54.423Z,0.80
2019-03-08T12:23:40.442Z,0.80
2019-03-08T12:26:15.772Z,0.70
2019-03-08T12:29:01.554Z,0.53
2019-03-08T12:31:33.917Z,0.70
2019-03-08T12:34:03.769Z,2.50
2019-03-08T12:36:48.514Z,1.20
2019-03-08T12:39:34.796Z,1.00
2019-03-08T12:42:07.167Z,0.67
2019-03-08T12:44:39.255Z,0.60
2019-03-08T12:47:24.787Z,2.47
2019-03-08T12:49:54.470Z,1.40
2019-03-08T12:52:29.839Z,1.20
2019-03-08T12:55:02.206Z,1.00
2019-03-08T12:57:31.882Z,0.63
2019-03-08T13:00:07.499Z,0.80
2019-03-08T13:02:45.954Z,0.77
2019-03-08T13:05:24.266Z,0.60
2019-03-08T13:07:56.724Z,0.60
2019-03-08T13:10:24.939Z,0.63
2019-03-08T13:12:54.428Z,0.63
2019-03-08T13:15:22.477Z,0.40
2019-03-08T13:17:50.538Z,0.50
2019-03-08T13:20:18.574Z,0.50
2019-03-08T13:22:46.637Z,0.60
2019-03-08T13:25:14.675Z,0.50
2019-03-08T13:27:42.718Z,0.43
2019-03-08T13:30:12.314Z,0.80
2019-03-08T13:32:40.351Z,0.70
2019-03-08T13:35:09.970Z,0.37
2019-03-08T13:37:38.006Z,0.63
2019-03-08T13:40:07.137Z,0.80
2019-03-08T13:42:35.179Z,0.60
2019-03-08T13:45:04.747Z,0.70
2019-03-08T13:47:32.786Z,0.63
2019-03-08T13:50:00.833Z,0.60
2019-03-08T13:52:28.884Z,0.60
2019-03-08T13:54:57.798Z,0.63
2019-03-08T13:57:25.854Z,1.00
2019-03-08T13:59:53.892Z,0.70
2019-03-08T14:02:21.937Z,0.60
2019-03-08T14:04:49.991Z,0.60
2019-03-08T14:07:18.052Z,0.70
2019-03-08T14:09:46.462Z,0.60
2019-03-08T14:12:15.269Z,0.80
2019-03-08T14:14:43.349Z,0.50
2019-03-08T14:17:11.390Z,0.60
2019-03-08T14:19:39.444Z,1.37
2019-03-08T14:22:07.500Z,0.70
2019-03-08T14:24:35.557Z,0.70
2019-03-08T14:27:03.882Z,0.80
2019-03-08T14:29:31.918Z,0.40
2019-03-08T14:32:00.025Z,0.70
2019-03-08T14:34:28.086Z,0.70
2019-03-08T14:36:56.155Z,0.80
2019-03-08T14:39:24.360Z,0.60
2019-03-08T14:41:57.203Z,0.70
2019-03-08T14:44:44.902Z,0.60
2019-03-08T14:47:14.612Z,0.57
2019-03-08T14:49:42.657Z,0.60
2019-03-08T14:52:10.710Z,0.80
2019-03-08T14:54:42.443Z,0.53
2019-03-08T14:57:09.239Z,0.83
2019-03-08T14:59:38.323Z,0.70
2019-03-08T15:02:06.469Z,0.60
2019-03-08T15:04:34.959Z,0.90
2019-03-08T15:07:04.628Z,0.70
2019-03-08T15:09:32.842Z,0.60
2019-03-08T15:12:00.928Z,0.77
2019-03-08T15:14:30.253Z,0.67
2019-03-08T15:16:58.746Z,0.70
2019-03-08T15:19:26.834Z,0.50
2019-03-08T15:21:54.888Z,1.67
2019-03-08T15:24:22.936Z,0.93
2019-03-08T15:26:50.989Z,1.10
2019-03-08T15:29:19.044Z,1.20
2019-03-08T15:31:47.100Z,1.00
2019-03-08T15:34:21.348Z,1.10
2019-03-08T15:36:44.910Z,1.10
2019-03-08T15:39:12.999Z,1.20
2019-03-08T15:41:41.053Z,0.80
2019-03-08T15:44:09.116Z,0.73
2019-03-08T15:46:37.422Z,1.00
2019-03-08T15:49:05.474Z,0.80
2019-03-08T15:51:33.561Z,0.90
2019-03-08T15:54:01.596Z,0.70
2019-03-08T15:56:29.682Z,0.70
2019-03-08T15:58:57.723Z,2.70
2019-03-08T16:01:25.955Z,0.87
2019-03-08T16:03:54.023Z,0.77
2019-03-08T16:06:22.063Z,0.90
2019-03-08T16:08:50.106Z,0.63
2019-03-08T16:11:18.159Z,0.60
2019-03-08T16:13:46.198Z,0.60
2019-03-08T16:16:14.246Z,0.60
2019-03-08T16:18:44.096Z,0.60
2019-03-08T16:21:13.217Z,0.33
2019-03-08T16:23:41.510Z,0.67
2019-03-08T16:26:09.574Z,0.60
2019-03-08T16:28:37.693Z,0.60
2019-03-08T16:31:07.290Z,0.70
2019-03-08T16:33:43.127Z,0.60
2019-03-08T16:36:12.781Z,0.70
2019-03-08T16:38:48.181Z,0.67
2019-03-08T16:41:25.070Z,0.70
2019-03-08T16:44:10.818Z,0.70
2019-03-08T16:46:58.664Z,0.83
2019-03-08T16:49:30.974Z,0.77
2019-03-08T16:52:15.607Z,0.80
2019-03-08T16:54:45.179Z,0.90
2019-03-08T16:57:23.938Z,0.80
2019-03-08T16:59:53.637Z,0.80
2019-03-08T17:02:26.225Z,0.97
2019-03-08T17:04:55.901Z,1.07
2019-03-08T17:07:28.243Z,1.03
2019-03-08T17:10:14.096Z,0.80
2019-03-08T17:12:47.054Z,0.70
2019-03-08T17:15:25.387Z,1.30
2019-03-08T17:18:04.162Z,0.90
2019-03-08T17:20:36.794Z,1.33
2019-03-08T17:23:06.472Z,1.00
2019-03-08T17:25:48.091Z,1.40
2019-03-08T17:28:26.390Z,2.23
2019-03-08T17:31:13.994Z,1.10
2019-03-08T17:33:59.735Z,1.00
2019-03-08T17:36:32.281Z,1.40
2019-03-08T17:39:07.817Z,1.63
2019-03-08T17:41:55.530Z,1.40
2019-03-08T17:44:25.505Z,1.10
2019-03-08T17:46:55.289Z,4.47
2019-03-08T17:49:30.774Z,1.57
2019-03-08T17:52:04.508Z,1.17
2019-03-08T17:54:37.207Z,1.63
2019-03-08T17:57:12.586Z,1.27
2019-03-08T18:00:00.435Z,1.50
2019-03-08T18:02:39.282Z,1.87
2019-03-08T18:05:09.040Z,1.10
2019-03-08T18:07:44.838Z,1.40
2019-03-08T18:10:20.413Z,1.03
2019-03-08T18:12:50.097Z,1.30
2019-03-08T18:15:37.930Z,1.73
2019-03-08T18:18:10.289Z,1.40
2019-03-08T18:20:41.242Z,1.60
2019-03-08T18:23:26.965Z,1.60
2019-03-08T18:26:02.618Z,1.40
2019-03-08T18:28:32.293Z,1.90
2019-03-08T18:31:04.994Z,1.60
2019-03-08T18:33:34.677Z,1.57
2019-03-08T18:36:04.395Z,1.70
2019-03-08T18:38:34.158Z,1.60
2019-03-08T18:41:19.126Z,1.90
2019-03-08T18:44:05.295Z,1.40
2019-03-08T18:46:51.510Z,1.00
2019-03-08T18:49:35.996Z,1.10
2019-03-08T18:52:11.358Z,1.17
2019-03-08T18:54:53.186Z,1.60
2019-03-08T18:57:28.960Z,1.17
2019-03-08T19:00:04.906Z,1.60
2019-03-08T19:02:51.051Z,1.53
2019-03-08T19:05:20.718Z,1.40
2019-03-08T19:08:06.930Z,1.37
2019-03-08T19:10:36.625Z,1.43
2019-03-08T19:13:09.006Z,1.83
2019-03-08T19:15:57.042Z,1.87
2019-03-08T19:18:29.940Z,2.10
2019-03-08T19:21:15.746Z,1.97
2019-03-08T19:24:03.913Z,1.73
2019-03-08T19:26:36.614Z,2.27
2019-03-08T19:29:09.450Z,2.07
2019-03-08T19:31:45.210Z,2.00
2019-03-08T19:34:15.194Z,1.57
2019-03-08T19:36:53.868Z,1.97
2019-03-08T19:39:29.575Z,1.80
2019-03-08T19:41:59.302Z,1.80
2019-03-08T19:44:34.554Z,2.50
2019-03-08T19:47:13.262Z,1.87
2019-03-08T19:49:58.151Z,2.10
2019-03-08T19:52:30.554Z,1.93
2019-03-08T19:55:03.326Z,2.30
2019-03-08T19:57:39.227Z,3.27
2019-03-08T20:00:25.634Z,1.87
2019-03-08T20:02:58.058Z,2.47
2019-03-08T20:05:44.126Z,1.90
2019-03-08T20:08:16.761Z,2.70
2019-03-08T20:10:52.599Z,1.90
2019-03-08T20:13:40.090Z,2.37
2019-03-08T20:16:12.618Z,2.20
2019-03-08T20:18:51.031Z,2.20
2019-03-08T20:21:29.674Z,1.87
2019-03-08T20:24:02.290Z,2.20
2019-03-08T20:26:31.986Z,1.90
2019-03-08T20:31:48.358Z,2.67
2019-03-08T20:34:18.051Z,2.17
2019-03-08T20:36:47.808Z,2.40
2019-03-08T20:39:17.537Z,2.10
2019-03-08T20:42:02.425Z,2.03
2019-03-08T20:44:35.122Z,1.97
2019-03-08T20:47:16.961Z,2.30
2019-03-08T20:49:44.997Z,2.20
2019-03-08T20:52:13.050Z,2.17
2019-03-08T20:54:41.122Z,2.10
2019-03-08T20:57:09.197Z,1.83
2019-03-08T20:59:37.562Z,1.80
2019-03-08T21:02:05.702Z,1.60
2019-03-08T21:04:33.914Z,1.90
2019-03-08T21:07:02.289Z,2.53
2019-03-08T21:09:30.397Z,1.90
2019-03-08T21:11:58.430Z,1.73
2019-03-08T21:14:26.477Z,3.83
2019-03-08T21:16:54.517Z,1.97
2019-03-08T21:19:22.594Z,1.90
2019-03-08T21:21:51.213Z,2.20
2019-03-08T21:24:19.265Z,2.23
2019-03-08T21:26:47.315Z,1.90
2019-03-08T21:29:15.362Z,1.93
2019-03-08T21:31:43.421Z,1.83
2019-03-08T21:34:11.467Z,2.20
2019-03-08T21:36:39.507Z,1.87
2019-03-08T21:39:07.640Z,2.30
2019-03-08T21:41:35.698Z,1.97
2019-03-08T21:44:03.951Z,2.20
2019-03-08T21:46:32.000Z,2.00
2019-03-08T21:49:00.057Z,2.30
2019-03-08T21:51:28.961Z,2.27
2019-03-08T21:53:57.350Z,2.23
2019-03-08T21:56:25.414Z,2.07
2019-03-08T21:58:53.458Z,2.20
2019-03-08T22:01:21.506Z,2.47
2019-03-08T22:03:51.490Z,2.80
2019-03-08T22:06:19.533Z,2.50
2019-03-08T22:08:49.240Z,2.87
2019-03-08T22:11:18.647Z,2.33
2019-03-08T22:13:46.693Z,2.10
2019-03-08T22:16:14.749Z,2.63
2019-03-08T22:18:42.809Z,2.43
2019-03-08T22:21:10.863Z,2.00
2019-03-08T22:23:39.548Z,2.53
2019-03-08T22:26:07.649Z,4.17
2019-03-08T22:28:35.701Z,3.07
2019-03-08T22:31:04.244Z,2.57
2019-03-08T22:33:32.294Z,2.40
2019-03-08T22:36:00.382Z,2.97
2019-03-08T22:38:28.452Z,2.30
2019-03-08T22:40:56.570Z,2.53
2019-03-08T22:43:24.633Z,2.30
2019-03-08T22:45:52.675Z,2.90
2019-03-08T22:48:20.718Z,2.47
2019-03-08T22:50:49.103Z,2.70
2019-03-08T22:53:17.215Z,2.57
2019-03-08T22:55:45.261Z,2.80
2019-03-08T22:58:13.310Z,3.17
2019-03-08T23:00:58.938Z,2.87
2019-03-08T23:03:27.572Z,2.77
2019-03-08T23:05:55.625Z,2.70
2019-03-08T23:08:23.719Z,3.10
2019-03-08T23:10:51.780Z,3.07
2019-03-08T23:13:19.887Z,2.73
2019-03-08T23:15:47.961Z,3.00
2019-03-08T23:18:16.014Z,2.60
2019-03-08T23:20:44.277Z,3.17
2019-03-08T23:23:12.601Z,2.83
2019-03-08T23:25:40.810Z,2.83
2019-03-08T23:28:25.238Z,3.10
2019-03-08T23:30:57.683Z,2.63
2019-03-08T23:33:25.911Z,2.97
2019-03-08T23:35:53.959Z,2.93
2019-03-08T23:38:21.999Z,3.27
2019-03-08T23:40:50.038Z,2.20
2019-03-08T23:43:18.138Z,2.90
2019-03-08T23:45:46.191Z,3.20
2019-03-08T23:48:14.236Z,2.87
2019-03-08T23:50:42.318Z,2.90
2019-03-08T23:53:10.342Z,2.77
2019-03-08T23:55:38.396Z,2.93
2019-03-08T23:58:06.461Z,2.33
